createdAt,value
2018-07-05T00:00:00.349Z,20.08
2018-07-05T00:01:00.601Z,19.98
2018-07-05T00:02:00.819Z,19.98
2018-07-05T00:03:01.011Z,20.10
2018-07-05T00:04:01.201Z,20.03
2018-07-05T00:05:01.406Z,19.96
2018-07-05T00:06:01.617Z,19.91
2018-07-05T00:07:01.800Z,19.98
2018-07-05T00:08:02.013Z,19.91
2018-07-05T00:09:02.214Z,19.96
2018-07-05T00:10:02.421Z,19.88
2018-07-05T00:11:02.636Z,19.91
2018-07-05T00:12:02.839Z,19.91
2018-07-05T00:13:03.061Z,19.87
2018-07-05T00:14:03.277Z,19.92
2018-07-05T00:15:03.487Z,19.88
2018-07-05T00:16:03.692Z,19.94
2018-07-05T00:17:03.901Z,19.88
2018-07-05T00:18:04.109Z,19.77
2018-07-05T00:19:04.289Z,19.83
2018-07-05T00:20:04.502Z,19.83
2018-07-05T00:21:04.721Z,19.81
2018-07-05T00:22:04.912Z,19.78
2018-07-05T00:23:05.110Z,19.80
2018-07-05T00:24:05.306Z,19.62
2018-07-05T00:25:05.498Z,19.71
2018-07-05T00:26:05.690Z,19.69
2018-07-05T00:27:05.925Z,19.61
2018-07-05T00:28:06.072Z,19.44
2018-07-05T00:29:06.269Z,19.51
2018-07-05T00:30:06.453Z,19.54
2018-07-05T00:31:06.649Z,19.46
2018-07-05T00:32:06.866Z,19.40
2018-07-05T00:33:42.692Z,19.39
2018-07-05T00:34:07.268Z,19.31
2018-07-05T00:35:07.510Z,19.28
2018-07-05T00:36:07.761Z,19.28
2018-07-05T00:37:07.990Z,19.23
2018-07-05T00:38:08.220Z,19.22
2018-07-05T00:39:08.455Z,19.16
2018-07-05T00:40:08.690Z,19.16
2018-07-05T00:41:08.909Z,19.14
2018-07-05T00:42:09.136Z,19.02
2018-07-05T00:43:12.159Z,19.02
2018-07-05T00:44:09.473Z,19.04
2018-07-05T00:45:09.662Z,19.00
2018-07-05T00:46:09.870Z,18.99
2018-07-05T00:47:10.085Z,19.02
2018-07-05T00:48:10.261Z,19.00
2018-07-05T00:49:10.533Z,19.00
2018-07-05T00:50:10.676Z,18.92
2018-07-05T00:51:10.868Z,18.94
2018-07-05T00:52:11.062Z,18.92
2018-07-05T00:53:11.261Z,18.88
2018-07-05T00:55:43.374Z,18.65
2018-07-05T00:56:43.551Z,18.62
2018-07-05T00:57:43.748Z,18.60
2018-07-05T00:58:43.955Z,18.50
2018-07-05T00:59:44.178Z,18.52
2018-07-05T01:00:44.394Z,18.57
2018-07-05T01:01:44.596Z,18.54
2018-07-05T01:02:44.796Z,18.55
2018-07-05T01:05:16.615Z,18.44
2018-07-05T01:06:16.794Z,18.47
2018-07-05T01:07:16.974Z,18.44
2018-07-05T01:08:17.164Z,18.36
2018-07-05T01:09:17.373Z,18.42
2018-07-05T01:10:17.549Z,18.47
2018-07-05T01:11:17.770Z,18.42
2018-07-05T01:12:17.977Z,18.50
2018-07-05T01:13:18.196Z,18.39
2018-07-05T01:14:18.417Z,18.30
2018-07-05T01:15:18.630Z,18.44
2018-07-05T01:16:18.841Z,18.36
2018-07-05T01:17:19.049Z,18.41
2018-07-05T01:18:19.267Z,18.41
2018-07-05T01:19:19.482Z,18.33
2018-07-05T01:20:19.684Z,18.30
2018-07-05T01:21:19.874Z,18.37
2018-07-05T01:22:20.065Z,18.27
2018-07-05T01:23:20.276Z,18.29
2018-07-05T01:24:20.480Z,18.32
2018-07-05T01:25:20.692Z,18.30
2018-07-05T01:26:20.886Z,18.39
2018-07-05T01:27:21.076Z,18.42
2018-07-05T01:28:21.269Z,18.39
2018-07-05T01:29:21.457Z,18.36
2018-07-05T01:30:21.651Z,18.44
2018-07-05T01:31:21.871Z,18.41
2018-07-05T01:32:22.060Z,18.32
2018-07-05T01:33:22.315Z,18.37
2018-07-05T01:34:22.527Z,18.41
2018-07-05T01:35:22.721Z,18.44
2018-07-05T01:36:22.928Z,18.37
2018-07-05T01:37:23.137Z,18.42
2018-07-05T01:38:23.343Z,18.39
2018-07-05T01:39:23.528Z,18.29
2018-07-05T01:40:23.729Z,18.25
2018-07-05T01:41:23.943Z,18.18
2018-07-05T01:42:24.142Z,18.20
2018-07-05T01:43:24.387Z,18.18
2018-07-05T01:44:24.560Z,18.23
2018-07-05T01:45:24.766Z,18.10
2018-07-05T01:46:24.954Z,18.12
2018-07-05T01:47:25.144Z,18.15
2018-07-05T01:48:25.356Z,18.15
2018-07-05T01:49:25.569Z,18.17
2018-07-05T01:50:25.784Z,18.12
2018-07-05T01:52:57.916Z,18.05
2018-07-05T01:53:58.098Z,18.00
2018-07-05T01:54:58.294Z,17.93
2018-07-05T01:55:58.482Z,17.96
2018-07-05T01:56:58.686Z,17.92
2018-07-05T01:57:58.873Z,17.87
2018-07-05T01:58:59.055Z,17.95
2018-07-05T01:59:59.259Z,17.90
2018-07-05T02:00:59.449Z,17.90
2018-07-05T02:01:59.633Z,17.87
2018-07-05T02:02:59.834Z,17.82
2018-07-05T02:04:00.029Z,17.82
2018-07-05T02:05:00.243Z,17.92
2018-07-05T02:06:00.464Z,17.90
2018-07-05T02:07:00.654Z,17.79
2018-07-05T02:08:00.850Z,17.82
2018-07-05T02:09:01.042Z,17.79
2018-07-05T02:10:01.239Z,17.90
2018-07-05T02:11:01.432Z,17.84
2018-07-05T02:12:01.640Z,17.90
2018-07-05T02:13:01.830Z,17.90
2018-07-05T02:14:02.024Z,17.90
2018-07-05T02:15:02.221Z,17.92
2018-07-05T02:16:02.407Z,17.82
2018-07-05T02:17:02.592Z,17.87
2018-07-05T02:18:02.792Z,17.78
2018-07-05T02:19:02.992Z,17.78
2018-07-05T02:20:03.202Z,17.79
2018-07-05T02:21:03.418Z,17.75
2018-07-05T02:22:03.622Z,17.70
2018-07-05T02:23:03.860Z,17.74
2018-07-05T02:24:04.066Z,17.77
2018-07-05T02:25:04.267Z,17.70
2018-07-05T02:26:04.456Z,17.75
2018-07-05T02:27:04.664Z,17.68
2018-07-05T02:28:04.860Z,17.58
2018-07-05T02:29:05.043Z,17.54
2018-07-05T02:30:05.254Z,17.54
2018-07-05T02:31:05.468Z,17.41
2018-07-05T02:32:05.672Z,17.38
2018-07-05T02:33:05.867Z,17.48
2018-07-05T02:34:06.225Z,17.40
2018-07-05T02:35:06.283Z,17.37
2018-07-05T02:36:06.493Z,17.46
2018-07-05T02:37:06.671Z,17.36
2018-07-05T02:38:06.856Z,17.19
2018-07-05T02:39:07.043Z,17.03
2018-07-05T02:40:07.252Z,17.08
2018-07-05T02:41:07.469Z,16.93
2018-07-05T02:42:07.660Z,16.88
2018-07-05T02:43:07.853Z,16.94
2018-07-05T02:44:08.042Z,16.86
2018-07-05T02:46:40.204Z,16.78
2018-07-05T02:47:40.375Z,16.71
2018-07-05T02:48:40.577Z,16.67
2018-07-05T02:49:40.764Z,16.70
2018-07-05T02:50:40.973Z,16.66
2018-07-05T02:51:41.184Z,16.76
2018-07-05T02:52:41.394Z,16.68
2018-07-05T02:53:41.583Z,16.68
2018-07-05T02:54:41.773Z,16.79
2018-07-05T02:55:41.987Z,16.75
2018-07-05T02:56:42.195Z,16.70
2018-07-05T02:57:42.412Z,16.76
2018-07-05T02:58:42.611Z,16.71
2018-07-05T02:59:42.809Z,16.70
2018-07-05T03:00:42.987Z,16.68
2018-07-05T03:01:43.179Z,16.70
2018-07-05T03:02:43.389Z,16.71
2018-07-05T03:03:43.579Z,16.63
2018-07-05T03:04:43.783Z,16.78
2018-07-05T03:05:43.984Z,16.70
2018-07-05T03:06:44.193Z,16.66
2018-07-05T03:07:44.405Z,16.66
2018-07-05T03:08:44.604Z,16.66
2018-07-05T03:09:44.813Z,16.64
2018-07-05T03:10:45.024Z,16.57
2018-07-05T03:11:45.218Z,16.64
2018-07-05T03:12:45.415Z,16.53
2018-07-05T03:13:45.626Z,16.46
2018-07-05T03:14:45.814Z,16.56
2018-07-05T03:15:46.014Z,16.46
2018-07-05T03:16:46.221Z,16.56
2018-07-05T03:17:46.435Z,16.49
2018-07-05T03:18:46.635Z,16.49
2018-07-05T03:19:46.824Z,16.38
2018-07-05T03:22:19.116Z,16.38
2018-07-05T03:23:19.290Z,16.31
2018-07-05T03:24:19.501Z,16.43
2018-07-05T03:25:19.692Z,16.43
2018-07-05T03:26:19.893Z,16.46
2018-07-05T03:27:20.075Z,16.46
2018-07-05T03:28:20.274Z,16.41
2018-07-05T03:29:20.483Z,16.57
2018-07-05T03:30:20.686Z,16.58
2018-07-05T03:31:20.873Z,16.63
2018-07-05T03:32:21.074Z,16.66
2018-07-05T03:34:53.252Z,16.68
2018-07-05T03:35:53.433Z,16.75
2018-07-05T03:36:53.622Z,16.82
2018-07-05T03:37:53.823Z,16.81
2018-07-05T03:38:54.012Z,16.86
2018-07-05T03:39:54.225Z,16.91
2018-07-05T03:40:54.411Z,16.96
2018-07-05T03:41:54.601Z,16.89
2018-07-05T03:42:54.798Z,17.00
2018-07-05T03:43:55.010Z,17.16
2018-07-05T03:44:55.216Z,17.00
2018-07-05T03:45:55.421Z,17.11
2018-07-05T03:46:55.632Z,17.12
2018-07-05T03:47:55.846Z,17.21
2018-07-05T03:48:56.053Z,17.25
2018-07-05T03:49:56.263Z,17.26
2018-07-05T03:50:56.454Z,17.28
2018-07-05T03:51:56.697Z,17.33
2018-07-05T03:52:56.858Z,17.41
2018-07-05T03:53:57.065Z,17.38
2018-07-05T03:54:57.274Z,17.36
2018-07-05T03:55:57.474Z,17.33
2018-07-05T03:56:57.688Z,17.44
2018-07-05T03:57:57.876Z,17.43
2018-07-05T04:00:29.708Z,17.44
2018-07-05T04:01:29.892Z,17.48
2018-07-05T04:02:30.098Z,17.51
2018-07-05T04:03:30.284Z,17.58
2018-07-05T04:04:30.512Z,17.63
2018-07-05T04:05:30.684Z,17.54
2018-07-05T04:06:30.893Z,17.64
2018-07-05T04:07:31.088Z,17.55
2018-07-05T04:08:31.290Z,17.75
2018-07-05T04:09:31.482Z,17.79
2018-07-05T04:10:31.673Z,17.79
2018-07-05T04:11:31.879Z,17.89
2018-07-05T04:12:32.065Z,17.82
2018-07-05T04:13:32.275Z,17.96
2018-07-05T04:14:32.463Z,17.90
2018-07-05T04:15:32.651Z,18.11
2018-07-05T04:16:32.845Z,18.33
2018-07-05T04:17:33.040Z,18.65
2018-07-05T04:18:33.228Z,19.16
2018-07-05T04:19:33.424Z,19.63
2018-07-05T04:20:33.624Z,20.26
2018-07-05T04:21:33.838Z,20.69
2018-07-05T04:22:34.030Z,21.09
2018-07-05T04:23:34.230Z,21.50
2018-07-05T04:24:34.424Z,21.83
2018-07-05T04:25:34.609Z,22.20
2018-07-05T04:26:34.828Z,22.45
2018-07-05T04:27:35.033Z,22.58
2018-07-05T04:28:35.225Z,22.90
2018-07-05T04:29:35.440Z,23.04
2018-07-05T04:30:35.658Z,23.22
2018-07-05T04:31:35.822Z,23.60
2018-07-05T04:32:36.033Z,23.60
2018-07-05T04:33:36.242Z,23.43
2018-07-05T04:34:36.433Z,23.02
2018-07-05T04:35:36.625Z,22.51
2018-07-05T04:36:36.832Z,22.25
2018-07-05T04:37:37.047Z,22.17
2018-07-05T04:38:37.240Z,22.27
2018-07-05T04:39:37.435Z,22.22
2018-07-05T04:40:37.632Z,22.05
2018-07-05T04:41:37.832Z,22.25
2018-07-05T04:42:38.065Z,22.85
2018-07-05T04:43:38.256Z,23.35
2018-07-05T04:44:38.445Z,23.75
2018-07-05T04:45:38.634Z,23.94
2018-07-05T04:46:38.846Z,24.10
2018-07-05T04:47:39.062Z,24.50
2018-07-05T04:48:39.252Z,24.49
2018-07-05T04:49:39.455Z,24.49
2018-07-05T04:50:39.671Z,24.61
2018-07-05T04:51:39.875Z,24.49
2018-07-05T04:52:40.066Z,24.15
2018-07-05T04:53:40.271Z,24.13
2018-07-05T04:54:40.470Z,24.16
2018-07-05T04:55:40.664Z,23.70
2018-07-05T04:56:40.856Z,23.43
2018-07-05T04:57:41.069Z,23.61
2018-07-05T04:58:41.268Z,23.84
2018-07-05T04:59:41.473Z,24.18
2018-07-05T05:00:41.663Z,24.24
2018-07-05T05:01:41.871Z,24.67
2018-07-05T05:02:42.058Z,24.76
2018-07-05T05:03:42.250Z,24.40
2018-07-05T05:04:42.443Z,24.16
2018-07-05T05:05:42.636Z,23.97
2018-07-05T05:06:42.832Z,24.02
2018-07-05T05:07:43.036Z,24.13
2018-07-05T05:08:43.264Z,24.21
2018-07-05T05:09:43.439Z,23.97
2018-07-05T05:10:43.645Z,23.80
2018-07-05T05:11:43.888Z,23.61
2018-07-05T05:12:44.093Z,23.54
2018-07-05T05:13:44.284Z,23.35
2018-07-05T05:14:44.477Z,23.17
2018-07-05T05:15:44.706Z,23.02
2018-07-05T05:16:44.920Z,23.10
2018-07-05T05:17:45.111Z,23.01
2018-07-05T05:18:45.300Z,23.27
2018-07-05T05:19:45.494Z,23.57
2018-07-05T05:20:45.684Z,23.78
2018-07-05T05:21:45.882Z,23.88
2018-07-05T05:22:46.170Z,24.12
2018-07-05T05:25:18.236Z,23.95
2018-07-05T05:26:18.423Z,23.83
2018-07-05T05:27:18.610Z,23.75
2018-07-05T05:28:18.804Z,23.75
2018-07-05T05:29:19.025Z,23.76
2018-07-05T05:30:19.245Z,23.91
2018-07-05T05:31:19.451Z,24.20
2018-07-05T05:32:19.659Z,24.06
2018-07-05T05:33:19.853Z,24.12
2018-07-05T05:34:20.050Z,24.20
2018-07-05T05:35:20.229Z,24.05
2018-07-05T05:36:20.423Z,23.70
2018-07-05T05:37:20.614Z,23.68
2018-07-05T05:39:53.095Z,24.46
2018-07-05T05:40:52.897Z,24.68
2018-07-05T05:41:53.113Z,24.64
2018-07-05T05:42:53.306Z,24.87
2018-07-05T05:43:53.502Z,24.91
2018-07-05T05:44:53.712Z,24.69
2018-07-05T05:45:53.915Z,24.69
2018-07-05T05:46:54.117Z,24.73
2018-07-05T05:47:54.321Z,25.33
2018-07-05T05:48:54.514Z,26.07
2018-07-05T05:49:54.731Z,26.21
2018-07-05T05:50:54.928Z,26.67
2018-07-05T05:51:55.157Z,26.76
2018-07-05T05:52:55.371Z,26.62
2018-07-05T05:53:55.579Z,27.04
2018-07-05T05:54:55.790Z,26.91
2018-07-05T05:55:55.987Z,26.94
2018-07-05T05:56:56.196Z,27.40
2018-07-05T05:57:56.414Z,27.74
2018-07-05T05:58:56.622Z,27.37
2018-07-05T05:59:56.826Z,27.00
2018-07-05T06:00:57.036Z,26.73
2018-07-05T06:01:57.294Z,26.67
2018-07-05T06:02:57.452Z,26.97
2018-07-05T06:03:57.649Z,27.41
2018-07-05T06:04:57.847Z,27.41
2018-07-05T06:05:58.058Z,27.00
2018-07-05T06:06:58.279Z,26.81
2018-07-05T06:07:58.556Z,26.76
2018-07-05T06:08:58.705Z,26.75
2018-07-05T06:09:58.907Z,26.58
2018-07-05T06:10:59.115Z,26.76
2018-07-05T06:11:59.335Z,26.37
2018-07-05T06:12:59.535Z,26.54
2018-07-05T06:13:59.712Z,26.25
2018-07-05T06:14:59.929Z,26.39
2018-07-05T06:16:00.137Z,26.60
2018-07-05T06:17:00.379Z,26.97
2018-07-05T06:18:00.557Z,27.07
2018-07-05T06:19:00.751Z,27.28
2018-07-05T06:20:00.963Z,26.94
2018-07-05T06:21:01.169Z,27.21
2018-07-05T06:22:01.370Z,27.97
2018-07-05T06:23:01.611Z,28.07
2018-07-05T06:25:33.326Z,27.12
2018-07-05T06:26:33.502Z,27.14
2018-07-05T06:27:33.755Z,27.34
2018-07-05T06:28:33.946Z,27.59
2018-07-05T06:29:34.150Z,28.15
2018-07-05T06:30:34.358Z,28.04
2018-07-05T06:31:34.571Z,28.15
2018-07-05T06:32:34.768Z,28.78
2018-07-05T06:33:34.957Z,28.85
2018-07-05T06:34:35.164Z,28.59
2018-07-05T06:35:35.384Z,28.44
2018-07-05T06:36:35.589Z,27.77
2018-07-05T06:37:35.784Z,28.21
2018-07-05T06:38:36.038Z,28.58
2018-07-05T06:39:36.313Z,29.33
2018-07-05T06:40:36.471Z,29.18
2018-07-05T06:41:36.686Z,28.43
2018-07-05T06:42:36.877Z,28.71
2018-07-05T06:43:37.075Z,28.48
2018-07-05T06:44:37.292Z,28.21
2018-07-05T06:45:37.484Z,28.39
2018-07-05T06:46:37.676Z,28.64
2018-07-05T06:47:37.875Z,28.80
2018-07-05T06:48:38.105Z,28.93
2018-07-05T06:49:38.316Z,28.68
2018-07-05T06:50:38.542Z,28.90
2018-07-05T06:51:38.768Z,29.19
2018-07-05T06:52:38.986Z,29.06
2018-07-05T06:53:39.187Z,28.78
2018-07-05T06:54:39.439Z,29.05
2018-07-05T06:55:39.609Z,29.19
2018-07-05T06:56:39.816Z,29.27
2018-07-05T06:57:40.015Z,29.73
2018-07-05T06:58:40.228Z,30.11
2018-07-05T06:59:40.416Z,30.45
2018-07-05T07:00:40.625Z,30.53
2018-07-05T07:01:40.836Z,29.73
2018-07-05T07:02:41.043Z,30.04
2018-07-05T07:03:41.265Z,30.99
2018-07-05T07:04:41.462Z,31.09
2018-07-05T07:05:41.675Z,30.99
2018-07-05T07:06:41.898Z,30.38
2018-07-05T07:07:42.096Z,30.53
2018-07-05T07:08:42.318Z,30.45
2018-07-05T07:09:42.536Z,30.46
2018-07-05T07:10:42.763Z,30.83
2018-07-05T07:11:42.972Z,31.43
2018-07-05T07:12:43.200Z,31.72
2018-07-05T07:15:15.040Z,31.80
2018-07-05T07:16:15.238Z,32.01
2018-07-05T07:17:15.456Z,31.85
2018-07-05T07:18:15.654Z,32.11
2018-07-05T07:19:15.865Z,32.67
2018-07-05T07:20:16.094Z,32.51
2018-07-05T07:21:16.294Z,32.87
2018-07-05T07:22:16.499Z,33.01
2018-07-05T07:23:16.739Z,32.75
2018-07-05T07:24:16.936Z,32.72
2018-07-05T07:25:17.130Z,32.30
2018-07-05T07:26:17.328Z,32.29
2018-07-05T07:27:17.554Z,32.55
2018-07-05T07:28:17.768Z,31.65
2018-07-05T07:30:49.887Z,31.91
2018-07-05T07:31:50.155Z,31.95
2018-07-05T07:32:50.311Z,32.30
2018-07-05T07:33:50.507Z,32.13
2018-07-05T07:34:50.729Z,32.44
2018-07-05T07:35:50.946Z,32.11
2018-07-05T07:36:51.156Z,31.95
2018-07-05T07:37:51.353Z,32.11
2018-07-05T07:38:51.566Z,31.81
2018-07-05T07:39:51.781Z,31.10
2018-07-05T07:40:51.978Z,32.15
2018-07-05T07:41:52.181Z,32.75
2018-07-05T07:42:52.390Z,33.35
2018-07-05T07:43:52.604Z,33.81
2018-07-05T07:44:52.810Z,34.35
2018-07-05T07:45:53.033Z,34.25
2018-07-05T07:46:53.242Z,34.09
2018-07-05T07:47:53.463Z,33.09
2018-07-05T07:48:53.673Z,32.41
2018-07-05T07:49:53.880Z,33.01
2018-07-05T07:50:54.084Z,33.38
2018-07-05T07:51:54.307Z,33.45
2018-07-05T07:52:54.525Z,33.82
2018-07-05T07:55:26.670Z,33.35
2018-07-05T07:56:26.860Z,34.06
2018-07-05T07:57:27.084Z,33.97
2018-07-05T07:58:27.282Z,33.35
2018-07-05T07:59:27.485Z,33.41
2018-07-05T08:00:27.691Z,33.06
2018-07-05T08:01:27.924Z,34.19
2018-07-05T08:02:28.148Z,35.11
2018-07-05T08:03:28.365Z,34.97
2018-07-05T08:04:28.592Z,34.42
2018-07-05T08:05:28.789Z,33.87
2018-07-05T08:06:29.003Z,33.78
2018-07-05T08:07:29.228Z,33.11
2018-07-05T08:08:29.502Z,32.77
2018-07-05T08:09:29.582Z,32.66
2018-07-05T08:10:29.786Z,32.79
2018-07-05T08:11:30.035Z,32.94
2018-07-05T08:12:30.241Z,33.22
2018-07-05T08:13:30.471Z,34.25
2018-07-05T08:14:30.675Z,35.26
2018-07-05T08:15:30.897Z,36.03
2018-07-05T08:16:31.104Z,35.36
2018-07-05T08:17:31.317Z,35.48
2018-07-05T08:18:31.537Z,35.11
2018-07-05T08:21:03.678Z,35.21
2018-07-05T08:22:03.949Z,35.28
2018-07-05T08:23:04.034Z,35.44
2018-07-05T08:24:04.235Z,35.40
2018-07-05T08:25:04.436Z,33.23
2018-07-05T08:26:04.643Z,33.39
2018-07-05T08:27:04.860Z,33.82
2018-07-05T08:28:05.088Z,34.46
2018-07-05T08:29:05.284Z,34.40
2018-07-05T08:30:05.493Z,34.70
2018-07-05T08:31:05.709Z,35.36
2018-07-05T08:32:05.922Z,35.29
2018-07-05T08:33:06.149Z,34.81
2018-07-05T08:34:06.341Z,35.03
2018-07-05T08:35:06.541Z,35.25
2018-07-05T08:36:06.743Z,36.07
2018-07-05T08:37:06.956Z,36.46
2018-07-05T08:38:07.187Z,35.84
2018-07-05T08:39:07.408Z,35.70
2018-07-05T08:40:07.633Z,35.44
2018-07-05T08:41:07.855Z,35.23
2018-07-05T08:42:08.082Z,35.36
2018-07-05T08:43:08.297Z,34.53
2018-07-05T08:44:08.507Z,34.46
2018-07-05T08:45:08.730Z,34.24
2018-07-05T08:46:08.946Z,34.32
2018-07-05T08:47:09.165Z,34.49
2018-07-05T08:48:09.388Z,34.15
2018-07-05T08:49:09.603Z,34.02
2018-07-05T08:50:09.810Z,34.32
2018-07-05T08:51:10.024Z,34.99
2018-07-05T08:52:10.204Z,35.43
2018-07-05T08:54:42.444Z,34.09
2018-07-05T08:55:42.633Z,33.65
2018-07-05T08:56:42.844Z,34.09
2018-07-05T08:57:43.067Z,34.72
2018-07-05T08:58:43.306Z,34.72
2018-07-05T08:59:43.504Z,35.00
2018-07-05T09:00:43.710Z,35.55
2018-07-05T09:01:43.920Z,36.00
2018-07-05T09:02:44.151Z,36.28
2018-07-05T09:03:44.339Z,35.81
2018-07-05T09:04:44.545Z,35.18
2018-07-05T09:05:44.747Z,35.55
2018-07-05T09:06:44.979Z,35.48
2018-07-05T09:07:45.206Z,35.44
2018-07-05T09:08:45.484Z,34.25
2018-07-05T09:09:45.663Z,35.31
2018-07-05T09:10:45.872Z,35.72
2018-07-05T09:11:46.149Z,36.25
2018-07-05T09:12:46.317Z,35.72
2018-07-05T09:13:46.539Z,35.66
2018-07-05T09:14:46.753Z,34.89
2018-07-05T09:15:46.980Z,34.97
2018-07-05T09:16:47.210Z,35.37
2018-07-05T09:17:47.611Z,35.29
2018-07-05T09:18:47.653Z,35.16
2018-07-05T09:19:47.886Z,35.14
2018-07-05T09:20:48.112Z,35.52
2018-07-05T09:21:48.329Z,36.22
2018-07-05T09:22:48.550Z,36.20
2018-07-05T09:23:48.793Z,36.49
2018-07-05T09:24:48.961Z,36.28
2018-07-05T09:25:49.176Z,35.99
2018-07-05T09:26:49.477Z,35.53
2018-07-05T09:27:49.616Z,35.96
2018-07-05T09:28:49.839Z,35.93
2018-07-05T09:29:50.132Z,36.38
2018-07-05T09:30:50.200Z,36.37
2018-07-05T09:31:50.418Z,35.99
2018-07-05T09:32:50.631Z,35.10
2018-07-05T09:33:50.851Z,33.35
2018-07-05T09:34:51.060Z,32.14
2018-07-05T09:35:51.277Z,32.21
2018-07-05T09:36:51.499Z,31.75
2018-07-05T09:37:51.723Z,31.69
2018-07-05T09:40:23.858Z,32.44
2018-07-05T09:41:24.041Z,33.01
2018-07-05T09:42:24.260Z,33.23
2018-07-05T09:43:24.494Z,33.35
2018-07-05T09:44:24.708Z,33.47
2018-07-05T09:45:24.915Z,32.72
2018-07-05T09:46:25.116Z,32.81
2018-07-05T09:47:25.318Z,32.26
2018-07-05T09:48:25.543Z,32.79
2018-07-05T09:49:25.742Z,33.06
2018-07-05T09:50:25.942Z,33.59
2018-07-05T09:51:26.159Z,33.75
2018-07-05T09:52:26.426Z,34.37
2018-07-05T09:53:26.585Z,34.88
2018-07-05T09:55:58.766Z,34.32
2018-07-05T09:56:58.951Z,33.59
2018-07-05T09:57:59.149Z,33.38
2018-07-05T09:58:59.345Z,33.12
2018-07-05T09:59:59.561Z,32.85
2018-07-05T10:00:59.769Z,33.79
2018-07-05T10:01:59.967Z,34.42
2018-07-05T10:03:00.182Z,34.47
2018-07-05T10:04:00.396Z,34.39
2018-07-05T10:05:00.595Z,34.25
2018-07-05T10:06:00.795Z,34.54
2018-07-05T10:07:01.005Z,34.12
2018-07-05T10:08:01.212Z,33.42
2018-07-05T10:09:01.414Z,34.09
2018-07-05T10:10:01.634Z,33.94
2018-07-05T10:11:01.841Z,34.13
2018-07-05T10:12:02.063Z,33.63
2018-07-05T10:13:02.317Z,33.28
2018-07-05T10:14:02.480Z,32.69
2018-07-05T10:15:02.683Z,33.01
2018-07-05T10:16:02.910Z,33.19
2018-07-05T10:17:03.110Z,33.12
2018-07-05T10:18:03.325Z,33.16
2018-07-05T10:20:35.187Z,33.41
2018-07-05T10:21:35.359Z,33.09
2018-07-05T10:22:35.561Z,32.96
2018-07-05T10:23:35.756Z,32.79
2018-07-05T10:24:35.974Z,33.04
2018-07-05T10:25:36.194Z,32.81
2018-07-05T10:26:36.426Z,33.15
2018-07-05T10:27:36.603Z,33.41
2018-07-05T10:28:36.817Z,33.63
2018-07-05T10:29:37.035Z,33.42
2018-07-05T10:30:37.233Z,33.61
2018-07-05T10:31:37.451Z,33.81
2018-07-05T10:32:37.674Z,33.97
2018-07-05T10:33:37.886Z,33.73
2018-07-05T10:34:38.096Z,33.44
2018-07-05T10:35:38.313Z,33.54
2018-07-05T10:36:38.501Z,33.51
2018-07-05T10:37:38.707Z,33.44
2018-07-05T10:38:38.915Z,33.59
2018-07-05T10:39:39.132Z,33.69
2018-07-05T10:40:39.332Z,33.63
2018-07-05T10:41:39.534Z,33.39
2018-07-05T10:42:39.750Z,33.01
2018-07-05T10:43:40.026Z,32.93
2018-07-05T10:44:40.116Z,33.07
2018-07-05T10:45:40.326Z,33.28
2018-07-05T10:46:40.555Z,32.96
2018-07-05T10:47:40.784Z,33.12
2018-07-05T10:48:40.985Z,33.07
2018-07-05T10:49:41.187Z,32.99
2018-07-05T10:50:41.409Z,33.23
2018-07-05T10:51:41.626Z,33.23
2018-07-05T10:52:41.842Z,33.59
2018-07-05T10:53:42.044Z,33.19
2018-07-05T10:54:42.273Z,33.19
2018-07-05T10:55:42.496Z,33.19
2018-07-05T10:56:42.721Z,33.28
2018-07-05T10:57:42.941Z,33.44
2018-07-05T10:58:43.165Z,33.42
2018-07-05T10:59:43.375Z,33.59
2018-07-05T11:00:43.574Z,33.49
2018-07-05T11:03:15.752Z,33.79
2018-07-05T11:04:15.936Z,33.61
2018-07-05T11:05:16.156Z,33.71
2018-07-05T11:06:16.360Z,33.21
2018-07-05T11:07:16.570Z,33.47
2018-07-05T11:08:16.778Z,33.32
2018-07-05T11:09:16.991Z,33.39
2018-07-05T11:10:17.204Z,33.23
2018-07-05T11:11:17.393Z,33.53
2018-07-05T11:12:17.597Z,33.69
2018-07-05T11:13:17.789Z,33.91
2018-07-05T11:14:18.001Z,33.54
2018-07-05T11:15:18.219Z,33.39
2018-07-05T11:16:18.434Z,33.49
2018-07-05T11:17:18.642Z,33.54
2018-07-05T11:18:18.851Z,33.50
2018-07-05T11:19:19.077Z,33.38
2018-07-05T11:20:19.300Z,33.41
2018-07-05T11:21:19.519Z,33.63
2018-07-05T11:22:19.717Z,33.41
2018-07-05T11:23:19.934Z,33.21
2018-07-05T11:24:20.137Z,33.12
2018-07-05T11:25:20.350Z,32.63
2018-07-05T11:26:20.556Z,32.78
2018-07-05T11:27:20.761Z,32.63
2018-07-05T11:28:20.965Z,32.66
2018-07-05T11:29:21.175Z,32.52
2018-07-05T11:30:21.368Z,32.57
2018-07-05T11:31:21.574Z,32.44
2018-07-05T11:32:21.785Z,32.37
2018-07-05T11:33:22.006Z,32.15
2018-07-05T11:34:22.224Z,32.08
2018-07-05T11:35:22.469Z,32.26
2018-07-05T11:36:22.664Z,32.29
2018-07-05T11:37:22.864Z,32.28
2018-07-05T11:38:23.074Z,32.43
2018-07-05T11:39:23.281Z,32.70
2018-07-05T11:40:23.474Z,32.74
2018-07-05T11:41:23.683Z,32.60
2018-07-05T11:43:55.823Z,33.22
2018-07-05T11:44:56.011Z,33.03
2018-07-05T11:45:56.229Z,32.81
2018-07-05T11:46:56.420Z,32.48
2018-07-05T11:47:56.784Z,32.23
2018-07-05T11:48:56.816Z,32.29
2018-07-05T11:49:57.024Z,32.10
2018-07-05T11:50:57.229Z,32.47
2018-07-05T11:51:57.454Z,32.87
2018-07-05T11:52:57.787Z,33.01
2018-07-05T11:53:57.862Z,33.19
2018-07-05T11:54:58.065Z,33.37
2018-07-05T11:55:58.274Z,33.18
2018-07-05T11:56:58.492Z,33.11
2018-07-05T11:57:58.703Z,33.11
2018-07-05T11:58:58.898Z,33.06
2018-07-05T11:59:59.102Z,33.19
2018-07-05T12:00:59.326Z,33.50
2018-07-05T12:01:59.556Z,33.37
2018-07-05T12:02:59.814Z,33.79
2018-07-05T12:03:59.959Z,33.78
2018-07-05T12:05:00.172Z,33.81
2018-07-05T12:06:00.391Z,33.61
2018-07-05T12:07:00.594Z,32.60
2018-07-05T12:08:00.789Z,32.13
2018-07-05T12:09:00.992Z,32.15
2018-07-05T12:10:01.196Z,31.73
2018-07-05T12:11:01.412Z,31.95
2018-07-05T12:12:01.612Z,32.32
2018-07-05T12:13:01.825Z,32.45
2018-07-05T12:14:02.039Z,32.14
2018-07-05T12:15:02.320Z,32.11
2018-07-05T12:16:02.426Z,32.41
2018-07-05T12:17:02.637Z,32.66
2018-07-05T12:19:34.469Z,33.21
2018-07-05T12:20:34.647Z,33.16
2018-07-05T12:21:34.846Z,33.07
2018-07-05T12:22:35.045Z,32.82
2018-07-05T12:23:35.255Z,33.00
2018-07-05T12:24:35.451Z,32.82
2018-07-05T12:25:35.672Z,32.19
2018-07-05T12:26:35.868Z,32.01
2018-07-05T12:27:36.069Z,31.84
2018-07-05T12:28:36.278Z,31.36
2018-07-05T12:29:36.475Z,30.22
2018-07-05T12:30:36.685Z,29.73
2018-07-05T12:33:09.139Z,29.37
2018-07-05T12:34:09.324Z,29.55
2018-07-05T12:36:41.780Z,29.00
2018-07-05T12:37:41.587Z,28.85
2018-07-05T12:38:41.812Z,28.85
2018-07-05T12:39:42.009Z,29.08
2018-07-05T12:40:42.232Z,29.11
2018-07-05T12:41:42.424Z,28.98
2018-07-05T12:42:42.644Z,28.89
2018-07-05T12:43:42.845Z,28.52
2018-07-05T12:44:43.040Z,28.39
2018-07-05T12:45:43.263Z,28.29
2018-07-05T12:46:43.466Z,28.04
2018-07-05T12:47:43.683Z,27.66
2018-07-05T12:48:43.884Z,27.84
2018-07-05T12:49:44.093Z,27.78
2018-07-05T12:50:44.318Z,27.54
2018-07-05T12:51:44.558Z,27.57
2018-07-05T12:52:44.724Z,27.72
2018-07-05T12:53:44.937Z,27.57
2018-07-05T12:54:45.148Z,27.60
2018-07-05T12:55:45.372Z,27.31
2018-07-05T12:56:45.589Z,27.50
2018-07-05T12:57:45.795Z,27.60
2018-07-05T12:58:46.014Z,27.62
2018-07-05T12:59:46.219Z,27.54
2018-07-05T13:00:46.419Z,27.67
2018-07-05T13:01:46.613Z,27.74
2018-07-05T13:02:46.828Z,27.24
2018-07-05T13:03:47.042Z,27.04
2018-07-05T13:04:47.273Z,26.94
2018-07-05T13:05:47.498Z,27.13
2018-07-05T13:06:47.717Z,27.31
2018-07-05T13:07:47.918Z,27.06
2018-07-05T13:08:48.125Z,27.29
2018-07-05T13:09:48.331Z,27.29
2018-07-05T13:10:48.549Z,27.55
2018-07-05T13:11:48.745Z,27.65
2018-07-05T13:14:20.872Z,27.90
2018-07-05T13:15:21.058Z,27.85
2018-07-05T13:16:21.277Z,27.74
2018-07-05T13:17:21.465Z,27.90
2018-07-05T13:18:21.722Z,27.85
2018-07-05T13:19:21.868Z,27.88
2018-07-05T13:20:22.061Z,28.11
2018-07-05T13:21:22.286Z,28.18
2018-07-05T13:22:22.476Z,28.24
2018-07-05T13:23:22.684Z,28.34
2018-07-05T13:24:22.880Z,28.31
2018-07-05T13:26:55.489Z,28.49
2018-07-05T13:27:55.671Z,28.58
2018-07-05T13:28:55.865Z,28.54
2018-07-05T13:29:56.066Z,28.74
2018-07-05T13:30:56.262Z,28.58
2018-07-05T13:31:56.505Z,28.64
2018-07-05T13:32:56.712Z,28.43